Airfield :
LOGIN :

Register | Disclaimer

   EN    FR    IT 

 










Legend :    VFR   Marginal VFR   IFR   Intensive IFR   Very Intensive IFR
Visi :
Ceiling :
>= 8 km
>= 3000ft
5 to 8 km
1000 to 3000 ft
1500m to 5 km
500 to 1000 ft
800 to 1500m
200 to 500 ft
< 800m
< 200 ft
Symbols :   Thunderstorms  Fog  Heavy snow  Heavy precipitations  Wind > 20 kt
SIGMETs :     Misc.  Thunderstorms  Icing  Turbulence  Mountain Waves  Volcanic Ashes






- Airport Elevation : 3428 ft
- IATA code : ERH


GMFK - Moulay Ali Cherif Int.

CURRENT METAR :
  • 250200Z 34008KT 300V360 9999 BKN033 SCT100 28/07 Q1016 NOSIG

EXPIRED METARs :
  • 250100Z 30009KT 9999 BKN033 SCT100 28/08 Q1016 NOSIG
  • 250000Z 00000KT 9999 SCT033 SCT100 27/07 Q1016 NOSIG

TAF TAF GMFK
Valid from the 25 at 00:00 until the 26 at 06:00 UTC


242300Z 2500/2606 00000KT 9999 SCT033 SCT100
TEMPO 2501/2507 6000 -RA BKN040
TEMPO 2510/2518 TSRA BKN040 FEW050CB



MET'MAP, your aeronautical weather chart ! - Copyright ORBIFLY December 2007 - Disclaimer

ORBIFLY MET'MAP TEAM :

Programming & Development : Alexandra Zaïnal
Original concept : Baudouin d'Aumeries
Technical & hardware support : Manuel Goepfert
Assistance : Marc-Olivier Méhu




SOURCES & CREDITS :

   NOAA